createdAt,value
2023-03-13T00:00:46.860Z,60.63
2023-03-13T00:03:13.004Z,60.77
2023-03-13T00:05:39.185Z,60.96
2023-03-13T00:08:05.341Z,60.55
2023-03-13T00:10:31.466Z,60.68
2023-03-13T00:12:57.591Z,60.93
2023-03-13T00:15:23.744Z,60.64
2023-03-13T00:17:49.841Z,60.69
2023-03-13T00:20:15.937Z,61.01
2023-03-13T00:22:42.054Z,60.96
2023-03-13T00:25:08.139Z,60.96
2023-03-13T00:27:34.270Z,60.82
2023-03-13T00:30:00.456Z,60.91
2023-03-13T00:32:26.639Z,60.76
2023-03-13T00:34:52.797Z,60.74
2023-03-13T00:37:18.925Z,60.86
2023-03-13T00:39:45.021Z,60.98
2023-03-13T00:42:11.121Z,60.90
2023-03-13T00:44:37.234Z,60.79
2023-03-13T00:47:03.398Z,60.93
2023-03-13T00:49:29.483Z,61.02
2023-03-13T00:51:55.712Z,61.02
2023-03-13T00:54:21.876Z,61.04
2023-03-13T00:56:47.984Z,60.71
2023-03-13T00:59:14.104Z,60.93
2023-03-13T01:01:40.219Z,60.68
2023-03-13T01:04:06.328Z,61.02
2023-03-13T01:06:32.474Z,61.00
2023-03-13T01:08:58.568Z,60.96
2023-03-13T01:11:24.737Z,60.65
2023-03-13T01:13:50.889Z,60.92
2023-03-13T01:16:17.112Z,60.91
2023-03-13T01:18:43.296Z,61.00
2023-03-13T01:21:09.402Z,60.93
2023-03-13T01:23:35.502Z,60.81
2023-03-13T01:26:01.609Z,60.78
2023-03-13T01:28:27.771Z,60.71
2023-03-13T01:30:53.919Z,60.99
2023-03-13T01:33:20.057Z,60.77
2023-03-13T01:35:46.324Z,61.07
2023-03-13T01:38:12.555Z,60.92
2023-03-13T01:40:38.702Z,60.89
2023-03-13T01:43:06.341Z,61.09
2023-03-13T01:45:33.895Z,61.07
2023-03-13T01:48:00.093Z,60.94
2023-03-13T01:50:26.201Z,61.05
2023-03-13T01:52:52.294Z,61.09
2023-03-13T01:55:18.413Z,60.98
2023-03-13T01:57:44.571Z,61.04
2023-03-13T02:00:10.762Z,61.14
2023-03-13T02:02:36.951Z,61.04
2023-03-13T02:05:03.156Z,61.13
2023-03-13T02:07:29.272Z,61.06
2023-03-13T02:09:55.376Z,61.04
2023-03-13T02:12:21.487Z,60.99
2023-03-13T02:14:47.590Z,60.73
2023-03-13T02:17:13.737Z,60.95
2023-03-13T02:19:40.114Z,61.18
2023-03-13T02:22:06.219Z,61.06
2023-03-13T02:24:32.341Z,61.14
2023-03-13T02:26:58.454Z,61.05
2023-03-13T02:29:24.556Z,61.09
2023-03-13T02:31:50.711Z,60.92
2023-03-13T02:34:17.393Z,61.06
2023-03-13T02:36:43.518Z,61.03
2023-03-13T02:39:09.702Z,60.76
2023-03-13T02:41:35.823Z,61.07
2023-03-13T02:44:01.928Z,61.23
2023-03-13T02:46:28.091Z,61.20
2023-03-13T02:48:54.239Z,61.12
2023-03-13T02:51:20.361Z,60.83
2023-03-13T02:53:46.463Z,61.03
2023-03-13T02:56:12.610Z,61.00
2023-03-13T02:58:49.220Z,61.23
2023-03-13T03:01:16.316Z,60.97
2023-03-13T03:03:42.529Z,61.14
2023-03-13T03:06:08.646Z,61.17
2023-03-13T03:08:34.829Z,61.10
2023-03-13T03:11:00.951Z,60.92
2023-03-13T03:13:27.053Z,61.18
2023-03-13T03:15:53.165Z,61.23
2023-03-13T03:18:19.272Z,60.93
2023-03-13T03:20:45.409Z,60.94
2023-03-13T03:23:11.599Z,61.01
2023-03-13T03:25:37.723Z,61.03
2023-03-13T03:28:03.906Z,60.91
2023-03-13T03:30:30.031Z,61.14
2023-03-13T03:32:56.200Z,61.04
2023-03-13T03:35:22.347Z,61.11
2023-03-13T03:37:48.649Z,61.23
2023-03-13T03:40:14.779Z,61.00
2023-03-13T03:42:40.958Z,61.18
2023-03-13T03:45:07.219Z,61.04
2023-03-13T03:47:33.371Z,61.28
2023-03-13T03:49:59.502Z,61.03
2023-03-13T03:52:25.631Z,61.11
2023-03-13T03:54:51.739Z,61.13
2023-03-13T03:57:17.854Z,61.25
2023-03-13T03:59:44.067Z,61.15
2023-03-13T04:02:10.339Z,60.98
2023-03-13T04:04:36.513Z,61.24
2023-03-13T04:07:02.655Z,60.88
2023-03-13T04:09:31.520Z,61.14
2023-03-13T04:11:58.208Z,61.29
2023-03-13T04:14:24.336Z,61.24
2023-03-13T04:16:50.459Z,60.85
2023-03-13T04:19:16.634Z,61.20
2023-03-13T04:21:42.768Z,60.87
2023-03-13T04:24:08.885Z,61.30
2023-03-13T04:26:35.071Z,60.99
2023-03-13T04:29:01.227Z,60.79
2023-03-13T04:31:27.363Z,61.32
2023-03-13T04:33:53.499Z,61.13
2023-03-13T04:36:19.680Z,61.28
2023-03-13T04:38:45.840Z,61.27
2023-03-13T04:41:11.943Z,61.03
2023-03-13T04:43:38.559Z,61.31
2023-03-13T04:46:04.720Z,61.31
2023-03-13T04:48:30.872Z,61.32
2023-03-13T04:50:56.981Z,60.91
2023-03-13T04:53:23.103Z,60.95
2023-03-13T04:55:49.208Z,61.25
2023-03-13T04:58:15.318Z,61.33
2023-03-13T05:00:41.445Z,61.12
2023-03-13T05:03:07.563Z,61.31
2023-03-13T05:05:33.965Z,61.20
2023-03-13T05:08:00.172Z,61.26
2023-03-13T05:10:26.271Z,61.27
2023-03-13T05:12:52.384Z,61.15
2023-03-13T05:15:18.504Z,61.29
2023-03-13T05:17:44.613Z,61.32
2023-03-13T05:20:10.807Z,61.00
2023-03-13T05:22:36.942Z,61.22
2023-03-13T05:25:03.060Z,61.20
2023-03-13T05:27:29.221Z,61.35
2023-03-13T05:29:55.345Z,61.38
2023-03-13T05:32:21.576Z,61.34
2023-03-13T05:34:47.807Z,61.16
2023-03-13T05:37:23.284Z,61.32
2023-03-13T05:39:49.618Z,60.92
2023-03-13T05:42:15.796Z,61.01
2023-03-13T05:44:41.906Z,61.27
2023-03-13T05:47:08.091Z,61.37
2023-03-13T05:49:34.188Z,61.24
2023-03-13T05:52:00.303Z,61.00
2023-03-13T05:54:26.442Z,61.10
2023-03-13T05:56:52.551Z,61.37
2023-03-13T05:59:18.640Z,61.25
2023-03-13T06:01:44.823Z,61.38
2023-03-13T06:04:11.056Z,61.23
2023-03-13T06:06:37.178Z,61.14
2023-03-13T06:09:04.021Z,61.11
2023-03-13T06:11:30.209Z,61.35
2023-03-13T06:13:56.361Z,61.23
2023-03-13T06:16:22.524Z,60.92
2023-03-13T06:18:48.729Z,61.08
2023-03-13T06:21:14.857Z,61.20
2023-03-13T06:23:40.974Z,61.43
2023-03-13T06:26:07.094Z,61.29
2023-03-13T06:28:33.278Z,61.17
2023-03-13T06:30:59.450Z,61.26
2023-03-13T06:33:25.679Z,61.37
2023-03-13T06:35:56.638Z,61.37
2023-03-13T06:38:23.145Z,61.40
2023-03-13T06:40:49.327Z,61.27
2023-03-13T06:43:15.447Z,61.24
2023-03-13T06:45:41.631Z,61.22
2023-03-13T06:48:07.762Z,61.34
2023-03-13T06:50:33.870Z,61.33
2023-03-13T06:53:00.018Z,61.14
2023-03-13T06:55:26.156Z,61.12
2023-03-13T06:57:52.258Z,61.33
2023-03-13T07:00:18.379Z,61.46
2023-03-13T07:02:44.520Z,61.05
2023-03-13T07:05:10.653Z,61.49
2023-03-13T07:07:36.851Z,61.04
2023-03-13T07:10:02.960Z,61.11
2023-03-13T07:12:29.175Z,61.25
2023-03-13T07:14:55.295Z,61.28
2023-03-13T07:17:21.517Z,61.35
2023-03-13T07:19:47.689Z,61.46
2023-03-13T07:22:13.845Z,61.52
2023-03-13T07:24:39.997Z,61.28
2023-03-13T07:27:09.321Z,61.29
2023-03-13T07:29:35.518Z,61.06
2023-03-13T07:32:01.760Z,61.46
2023-03-13T07:34:28.091Z,61.34
2023-03-13T07:36:54.394Z,60.97
2023-03-13T07:39:20.555Z,61.15
2023-03-13T07:41:46.679Z,61.32
2023-03-13T07:44:12.858Z,61.44
2023-03-13T07:46:39.048Z,61.12
2023-03-13T07:49:05.156Z,61.24
2023-03-13T07:51:42.843Z,61.36
2023-03-13T07:54:09.384Z,61.45
2023-03-13T07:56:35.620Z,61.21
2023-03-13T07:59:01.734Z,61.09
2023-03-13T08:01:30.541Z,61.61
2023-03-13T08:03:57.186Z,61.47
2023-03-13T08:06:23.308Z,61.07
2023-03-13T08:08:49.444Z,61.26
2023-03-13T08:11:15.643Z,61.51
2023-03-13T08:13:41.797Z,61.32
2023-03-13T08:16:08.009Z,61.53
2023-03-13T08:18:34.160Z,61.56
2023-03-13T08:21:00.259Z,61.59
2023-03-13T08:23:26.366Z,61.56
2023-03-13T08:25:52.488Z,61.17
2023-03-13T08:28:18.627Z,61.54
2023-03-13T08:30:44.758Z,61.17
2023-03-13T08:33:10.943Z,61.61
2023-03-13T08:35:37.143Z,61.66
2023-03-13T08:38:03.295Z,61.42
2023-03-13T08:40:29.451Z,61.56
2023-03-13T08:42:55.645Z,61.34
2023-03-13T08:45:21.751Z,61.68
2023-03-13T08:47:47.974Z,61.41
2023-03-13T08:50:14.080Z,61.51
2023-03-13T08:52:40.277Z,61.29
2023-03-13T08:55:06.936Z,61.35
2023-03-13T08:57:33.124Z,61.56
2023-03-13T09:00:02.054Z,61.47
2023-03-13T09:02:28.361Z,61.55
2023-03-13T09:04:54.495Z,61.47
2023-03-13T09:07:20.687Z,61.34
2023-03-13T09:09:46.810Z,61.53
2023-03-13T09:12:24.736Z,61.30
2023-03-13T09:14:56.549Z,61.70
2023-03-13T09:17:22.638Z,61.59
2023-03-13T09:19:59.742Z,61.59
2023-03-13T09:22:26.858Z,61.61
2023-03-13T09:24:52.978Z,61.66
2023-03-13T09:27:19.086Z,61.60
2023-03-13T09:29:45.207Z,61.71
2023-03-13T09:32:11.308Z,61.68
2023-03-13T09:34:37.469Z,61.40
2023-03-13T09:37:03.654Z,61.69
2023-03-13T09:39:29.762Z,61.34
2023-03-13T09:41:55.856Z,61.61
2023-03-13T09:44:22.036Z,61.69
2023-03-13T09:46:48.254Z,61.75
2023-03-13T09:49:15.666Z,61.43
2023-03-13T09:51:43.339Z,61.36
2023-03-13T09:54:09.441Z,61.66
2023-03-13T09:56:35.546Z,61.35
2023-03-13T09:59:01.665Z,61.57
2023-03-13T10:01:27.863Z,61.63
2023-03-13T10:03:54.000Z,61.85
2023-03-13T10:06:20.118Z,61.80
2023-03-13T10:08:46.251Z,61.75
2023-03-13T10:11:12.340Z,61.59
2023-03-13T10:13:38.483Z,61.64
2023-03-13T10:16:04.617Z,61.61
2023-03-13T10:18:30.984Z,61.74
2023-03-13T10:20:57.205Z,61.77
2023-03-13T10:23:23.312Z,61.55
2023-03-13T10:25:49.412Z,61.49
2023-03-13T10:28:15.547Z,61.98
2023-03-13T10:30:41.679Z,61.78
2023-03-13T10:33:07.833Z,61.71
2023-03-13T10:35:34.080Z,61.63
2023-03-13T10:38:00.399Z,61.81
2023-03-13T10:40:26.582Z,61.56
2023-03-13T10:42:52.698Z,61.57
2023-03-13T10:45:18.876Z,61.78
2023-03-13T10:47:44.989Z,61.65
2023-03-13T10:50:11.198Z,61.79
2023-03-13T10:52:37.379Z,61.88
2023-03-13T10:55:03.522Z,61.57
2023-03-13T10:57:29.924Z,62.03
2023-03-13T10:59:56.150Z,61.76
2023-03-13T11:02:22.300Z,61.91
2023-03-13T11:04:48.536Z,61.66
2023-03-13T11:07:14.667Z,61.99
2023-03-13T11:09:40.782Z,61.78
2023-03-13T11:12:06.903Z,61.94
2023-03-13T11:14:33.100Z,61.67
2023-03-13T11:16:59.239Z,61.94
2023-03-13T11:19:25.416Z,61.99
2023-03-13T11:21:51.542Z,61.70
2023-03-13T11:24:17.666Z,61.83
2023-03-13T11:26:52.429Z,61.89
2023-03-13T11:29:28.307Z,61.75
2023-03-13T11:31:54.553Z,61.79
2023-03-13T11:34:20.809Z,61.89
2023-03-13T11:36:47.097Z,62.03
2023-03-13T11:39:13.322Z,61.93
2023-03-13T11:41:39.555Z,62.05
2023-03-13T11:44:05.729Z,62.11
2023-03-13T11:46:32.139Z,62.28
2023-03-13T11:48:58.434Z,61.99
2023-03-13T11:51:24.722Z,61.91
2023-03-13T11:53:51.028Z,62.15
2023-03-13T11:56:17.124Z,62.16
2023-03-13T11:58:43.254Z,62.26
2023-03-13T12:01:09.579Z,62.25
2023-03-13T12:03:35.836Z,62.25
2023-03-13T12:06:02.073Z,61.99
2023-03-13T12:08:28.544Z,62.17
2023-03-13T12:10:54.718Z,62.20
2023-03-13T12:13:20.901Z,62.05
2023-03-13T12:15:47.146Z,62.26
2023-03-13T12:18:13.277Z,62.11
2023-03-13T12:20:39.424Z,62.35
2023-03-13T12:23:05.674Z,62.00
2023-03-13T12:25:31.896Z,62.29
2023-03-13T12:27:58.157Z,62.07
2023-03-13T12:30:24.411Z,62.48
2023-03-13T12:32:50.641Z,62.13
2023-03-13T12:35:16.803Z,62.34
2023-03-13T12:37:43.000Z,62.26
2023-03-13T12:40:11.897Z,62.12
2023-03-13T12:42:38.208Z,62.32
2023-03-13T12:45:04.427Z,62.26
2023-03-13T12:47:30.691Z,62.13
2023-03-13T12:49:56.908Z,62.11
2023-03-13T12:52:23.070Z,62.19
2023-03-13T12:54:49.427Z,62.09
2023-03-13T12:57:15.676Z,62.33
2023-03-13T12:59:41.816Z,62.14
2023-03-13T13:02:07.995Z,62.09
2023-03-13T13:04:34.204Z,62.40
2023-03-13T13:07:00.872Z,62.43
2023-03-13T13:09:27.108Z,62.34
2023-03-13T13:11:53.343Z,62.13
2023-03-13T13:14:19.597Z,62.43
2023-03-13T13:16:45.753Z,62.09
2023-03-13T13:19:12.233Z,62.34
2023-03-13T13:21:38.482Z,62.31
2023-03-13T13:24:04.688Z,62.52
2023-03-13T13:26:30.824Z,62.43
2023-03-13T13:28:56.979Z,62.71
2023-03-13T13:31:23.327Z,62.38
2023-03-13T13:33:49.669Z,62.11
2023-03-13T13:36:16.374Z,62.22
2023-03-13T13:38:42.715Z,62.56
2023-03-13T13:41:08.938Z,62.58
2023-03-13T13:43:35.137Z,62.55
2023-03-13T13:46:01.348Z,62.49
2023-03-13T13:48:27.484Z,62.32
2023-03-13T13:50:53.717Z,62.21
2023-03-13T13:53:19.843Z,62.38
2023-03-13T13:55:46.097Z,62.32
2023-03-13T13:58:12.254Z,62.40
2023-03-13T14:00:38.416Z,62.33
2023-03-13T14:03:04.559Z,62.71
2023-03-13T14:05:30.981Z,62.42
2023-03-13T14:07:57.184Z,62.38
2023-03-13T14:10:23.347Z,62.25
2023-03-13T14:12:52.462Z,62.37
2023-03-13T14:15:18.621Z,62.26
2023-03-13T14:17:44.814Z,62.30
2023-03-13T14:20:11.200Z,62.31
2023-03-13T14:22:37.460Z,62.38
2023-03-13T14:25:03.693Z,62.45
2023-03-13T14:27:30.077Z,62.43
2023-03-13T14:29:56.337Z,62.33
2023-03-13T14:32:22.553Z,62.47
2023-03-13T14:34:48.748Z,62.46
2023-03-13T14:37:18.217Z,62.41
2023-03-13T14:39:50.069Z,62.49
2023-03-13T14:42:16.293Z,62.46
2023-03-13T14:44:42.522Z,62.44
2023-03-13T14:47:08.668Z,62.36
2023-03-13T14:49:34.968Z,62.43
2023-03-13T14:52:01.124Z,62.67
2023-03-13T14:54:27.211Z,62.53
2023-03-13T14:56:53.358Z,62.36
2023-03-13T14:59:19.475Z,62.43
2023-03-13T15:01:45.607Z,62.34
2023-03-13T15:04:11.786Z,62.61
2023-03-13T15:06:37.974Z,62.48
2023-03-13T15:09:04.109Z,62.26
2023-03-13T15:11:30.741Z,62.27
2023-03-13T15:13:56.876Z,62.34
2023-03-13T15:16:23.157Z,62.46
2023-03-13T15:18:49.349Z,62.33
2023-03-13T15:21:15.470Z,62.45
2023-03-13T15:23:41.571Z,62.57
2023-03-13T15:26:07.726Z,62.49
2023-03-13T15:28:33.815Z,62.54
2023-03-13T15:30:59.985Z,62.40
2023-03-13T15:33:26.163Z,62.75
2023-03-13T15:35:52.356Z,62.47
2023-03-13T15:38:18.532Z,62.72
2023-03-13T15:40:44.676Z,62.41
2023-03-13T15:43:10.779Z,62.47
2023-03-13T15:45:36.901Z,62.78
2023-03-13T15:48:03.050Z,62.47
2023-03-13T15:50:29.152Z,62.61
2023-03-13T15:52:55.633Z,62.43
2023-03-13T15:55:21.823Z,62.37
2023-03-13T15:57:47.947Z,62.66
2023-03-13T16:00:14.127Z,62.58
2023-03-13T16:02:40.336Z,62.45
2023-03-13T16:05:08.342Z,62.51
2023-03-13T16:07:35.730Z,62.54
2023-03-13T16:10:01.883Z,62.47
2023-03-13T16:12:27.978Z,62.69
2023-03-13T16:14:54.098Z,62.55
2023-03-13T16:17:20.370Z,62.48
2023-03-13T16:19:46.556Z,62.47
2023-03-13T16:22:12.712Z,62.33
2023-03-13T16:24:38.952Z,62.58
2023-03-13T16:27:05.061Z,62.73
2023-03-13T16:29:31.261Z,62.79
2023-03-13T16:31:57.930Z,62.41
2023-03-13T16:34:24.057Z,62.47
2023-03-13T16:36:50.173Z,62.38
2023-03-13T16:39:16.298Z,62.81
2023-03-13T16:41:42.411Z,62.89
2023-03-13T16:44:08.518Z,62.44
2023-03-13T16:46:34.991Z,62.70
2023-03-13T16:49:01.139Z,62.52
2023-03-13T16:51:27.333Z,62.43
2023-03-13T16:53:53.540Z,62.75
2023-03-13T16:56:19.749Z,62.36
2023-03-13T16:58:45.932Z,62.35
2023-03-13T17:01:12.166Z,62.53
2023-03-13T17:03:38.296Z,62.43
2023-03-13T17:06:04.408Z,62.52
2023-03-13T17:08:30.536Z,62.71
2023-03-13T17:10:56.684Z,62.64
2023-03-13T17:13:22.861Z,62.65
2023-03-13T17:15:49.550Z,62.71
2023-03-13T17:18:15.738Z,62.73
2023-03-13T17:20:41.844Z,62.49
2023-03-13T17:23:07.982Z,62.54
2023-03-13T17:25:34.087Z,62.53
2023-03-13T17:28:00.268Z,62.52
2023-03-13T17:30:26.408Z,62.53
2023-03-13T17:32:52.583Z,62.51
2023-03-13T17:35:18.787Z,62.76
2023-03-13T17:37:45.240Z,62.49
2023-03-13T17:40:11.431Z,62.61
2023-03-13T17:42:37.553Z,62.57
2023-03-13T17:45:04.199Z,62.73
2023-03-13T17:47:30.297Z,62.61
2023-03-13T17:49:56.393Z,62.35
2023-03-13T17:52:22.515Z,62.43
2023-03-13T17:54:48.690Z,62.52
2023-03-13T17:57:14.833Z,62.32
2023-03-13T17:59:41.115Z,62.53
2023-03-13T18:02:07.299Z,62.66
2023-03-13T18:04:33.498Z,62.56
2023-03-13T18:06:59.651Z,62.53
2023-03-13T18:09:25.778Z,62.49
2023-03-13T18:11:51.917Z,62.65
2023-03-13T18:14:18.146Z,62.51
2023-03-13T18:16:58.653Z,62.72
2023-03-13T18:19:25.071Z,62.53
2023-03-13T18:21:51.201Z,62.42
2023-03-13T18:24:17.507Z,62.69
2023-03-13T18:26:43.675Z,62.68
2023-03-13T18:29:09.853Z,62.52
2023-03-13T18:31:36.197Z,62.48
2023-03-13T18:34:02.489Z,62.70
2023-03-13T18:36:28.644Z,62.47
2023-03-13T18:38:54.737Z,62.39
2023-03-13T18:41:21.122Z,62.43
2023-03-13T18:43:47.376Z,62.37
2023-03-13T18:46:13.526Z,62.66
2023-03-13T18:48:39.752Z,62.64
2023-03-13T18:51:05.898Z,62.71
2023-03-13T18:53:32.034Z,62.64
2023-03-13T18:55:58.237Z,62.63
2023-03-13T18:58:24.413Z,62.38
2023-03-13T19:00:50.688Z,62.52
2023-03-13T19:03:16.899Z,62.37
2023-03-13T19:05:43.035Z,62.37
2023-03-13T19:08:09.196Z,62.48
2023-03-13T19:10:35.385Z,62.68
2023-03-13T19:13:01.556Z,62.60
2023-03-13T19:15:27.699Z,62.55
2023-03-13T19:17:53.934Z,62.47
2023-03-13T19:20:20.108Z,62.40
2023-03-13T19:22:46.388Z,62.69
2023-03-13T19:25:12.822Z,62.61
2023-03-13T19:27:38.989Z,62.31
2023-03-13T19:30:05.200Z,62.48
2023-03-13T19:32:31.370Z,62.42
2023-03-13T19:34:57.523Z,62.62
2023-03-13T19:37:23.698Z,62.60
2023-03-13T19:39:49.908Z,62.35
2023-03-13T19:42:16.051Z,62.44
2023-03-13T19:44:42.266Z,62.62
2023-03-13T19:47:08.453Z,62.28
2023-03-13T19:49:34.544Z,62.49
2023-03-13T19:52:00.747Z,62.55
2023-03-13T19:54:26.908Z,62.50
2023-03-13T19:56:53.056Z,62.46
2023-03-13T19:59:19.339Z,62.72
2023-03-13T20:01:45.554Z,62.36
2023-03-13T20:04:11.723Z,62.37
2023-03-13T20:06:37.871Z,62.66
2023-03-13T20:09:04.016Z,62.65
2023-03-13T20:11:30.134Z,62.67
2023-03-13T20:13:56.272Z,62.60
2023-03-13T20:16:22.448Z,62.61
2023-03-13T20:18:48.562Z,62.36
2023-03-13T20:21:14.709Z,62.59
2023-03-13T20:23:40.888Z,62.34
2023-03-13T20:26:07.024Z,62.41
2023-03-13T20:28:33.119Z,62.67
2023-03-13T20:30:59.329Z,62.74
2023-03-13T20:33:25.526Z,62.35
2023-03-13T20:35:51.713Z,62.44
2023-03-13T20:38:18.216Z,62.58
2023-03-13T20:40:44.379Z,62.74
2023-03-13T20:43:10.608Z,62.71
2023-03-13T20:45:36.736Z,62.69
2023-03-13T20:48:02.837Z,62.50
2023-03-13T20:50:29.001Z,62.32
2023-03-13T20:52:55.218Z,62.41
2023-03-13T20:55:21.323Z,62.38
2023-03-13T20:57:47.424Z,62.63
2023-03-13T21:00:13.624Z,62.63
2023-03-13T21:02:39.763Z,62.74
2023-03-13T21:05:05.937Z,62.28
2023-03-13T21:07:32.101Z,62.73
2023-03-13T21:09:58.224Z,62.66
2023-03-13T21:12:24.388Z,62.62
2023-03-13T21:14:50.499Z,62.67
2023-03-13T21:17:16.597Z,62.73
2023-03-13T21:19:42.707Z,62.48
2023-03-13T21:22:08.886Z,62.60
2023-03-13T21:24:35.049Z,62.70
2023-03-13T21:27:01.145Z,62.70
2023-03-13T21:29:27.364Z,62.72
2023-03-13T21:31:53.520Z,62.66
2023-03-13T21:34:19.660Z,62.73
2023-03-13T21:36:46.178Z,62.83
2023-03-13T21:39:12.305Z,62.56
2023-03-13T21:41:38.407Z,62.83
2023-03-13T21:44:04.535Z,62.84
2023-03-13T21:46:30.636Z,62.61
2023-03-13T21:48:56.828Z,62.76
2023-03-13T21:51:23.029Z,62.65
2023-03-13T21:53:49.129Z,62.46
2023-03-13T21:56:15.294Z,62.49
2023-03-13T21:58:41.433Z,62.58
2023-03-13T22:01:07.593Z,62.73
2023-03-13T22:03:33.792Z,62.28
2023-03-13T22:05:59.994Z,62.45
2023-03-13T22:08:26.114Z,62.46
2023-03-13T22:10:52.350Z,62.56
2023-03-13T22:13:18.538Z,62.60
2023-03-13T22:15:44.644Z,62.45
2023-03-13T22:18:10.735Z,62.55
2023-03-13T22:20:36.872Z,62.85
2023-03-13T22:23:03.050Z,62.60
2023-03-13T22:25:29.172Z,62.53
2023-03-13T22:27:55.373Z,62.50
2023-03-13T22:30:21.504Z,62.69
2023-03-13T22:32:47.635Z,62.67
2023-03-13T22:35:13.978Z,62.61
2023-03-13T22:37:40.149Z,62.79
2023-03-13T22:40:06.331Z,62.50
2023-03-13T22:42:32.529Z,62.48
2023-03-13T22:44:58.668Z,62.44
2023-03-13T22:47:24.846Z,62.46
2023-03-13T22:49:51.567Z,62.42
2023-03-13T22:52:17.700Z,62.65
2023-03-13T22:54:46.729Z,62.60
2023-03-13T22:57:12.984Z,62.61
2023-03-13T22:59:39.176Z,62.53
2023-03-13T23:02:05.340Z,62.67
2023-03-13T23:04:31.466Z,62.69
2023-03-13T23:06:57.578Z,62.79
2023-03-13T23:09:23.742Z,62.38
2023-03-13T23:11:49.883Z,62.66
2023-03-13T23:14:16.064Z,62.63
2023-03-13T23:16:42.398Z,62.49
2023-03-13T23:19:08.586Z,62.66
2023-03-13T23:21:34.716Z,62.31
2023-03-13T23:24:00.837Z,62.29
2023-03-13T23:26:27.023Z,62.45
2023-03-13T23:28:53.141Z,62.41
2023-03-13T23:31:19.299Z,62.61
2023-03-13T23:33:45.445Z,62.73
2023-03-13T23:36:11.620Z,62.63
2023-03-13T23:38:37.787Z,62.72
2023-03-13T23:41:03.973Z,62.73
2023-03-13T23:43:30.184Z,62.60
2023-03-13T23:45:56.305Z,62.44
2023-03-13T23:48:22.520Z,62.57
2023-03-13T23:50:48.650Z,62.42
2023-03-13T23:53:14.823Z,62.49
2023-03-13T23:55:40.970Z,62.26
2023-03-13T23:58:07.144Z,62.78
